Time;durP1;ratioP1;P1;durP2;ratioP2;P2;SDS_P1;SDS_P2;PMS_P1;PMS_P2;Temp;Humidity;BMP_temperature;BMP_pressure;BME280_temperature;BME280_humidity;BME280_pressure;Samples;Min_cycle;Max_cycle;Signal;HPM_P1;HPM_P2
2022/07/24 00:00:56;;;;;;;9.55;5.90;;;15.70;99.90;;;;;;6160710;23;20320;-77
2022/07/24 00:03:22;;;;;;;10.18;5.75;;;15.70;99.90;;;;;;6186047;23;20116;-76
2022/07/24 00:05:48;;;;;;;6.50;5.55;;;15.80;99.90;;;;;;6160195;23;20087;-76
2022/07/24 00:08:13;;;;;;;8.82;5.72;;;15.70;99.90;;;;;;6184919;23;20013;-74
2022/07/24 00:10:39;;;;;;;9.38;6.00;;;15.70;99.90;;;;;;6185688;23;20071;-76
2022/07/24 00:13:05;;;;;;;10.20;6.03;;;15.60;99.90;;;;;;6160920;23;20049;-75
2022/07/24 00:15:30;;;;;;;8.05;6.13;;;15.70;99.90;;;;;;6160667;23;20017;-75
2022/07/24 00:17:57;;;;;;;8.55;5.68;;;15.70;99.90;;;;;;6160723;23;20013;-75
2022/07/24 00:20:22;;;;;;;;;;;15.70;99.90;;;;;;6161367;23;20017;-75
2022/07/24 00:22:49;;;;;;;8.20;6.03;;;15.70;99.90;;;;;;6186346;23;19912;-75
2022/07/24 00:25:15;;;;;;;8.73;5.75;;;15.60;99.90;;;;;;6162320;23;20017;-75
2022/07/24 00:27:40;;;;;;;;;;;15.60;99.90;;;;;;6186380;23;20013;-75
2022/07/24 00:30:07;;;;;;;7.88;6.25;;;15.50;99.90;;;;;;6160784;23;19939;-74
2022/07/24 00:32:33;;;;;;;13.95;6.22;;;15.50;99.90;;;;;;6160425;23;20036;-75
2022/07/24 00:34:59;;;;;;;8.60;6.30;;;15.50;99.90;;;;;;6185862;23;20009;-75
2022/07/24 00:37:24;;;;;;;7.85;5.95;;;15.40;99.90;;;;;;6160479;23;20375;-77
2022/07/24 00:39:50;;;;;;;11.00;6.15;;;15.40;99.90;;;;;;6160469;23;20021;-75
2022/07/24 00:42:16;;;;;;;10.10;6.43;;;15.40;99.90;;;;;;6160228;23;20017;-75
2022/07/24 00:44:41;;;;;;;9.93;6.70;;;15.40;99.90;;;;;;6160287;23;20013;-76
2022/07/24 00:47:07;;;;;;;11.27;6.43;;;15.40;99.90;;;;;;6160263;23;20020;-75
2022/07/24 00:49:33;;;;;;;10.35;6.57;;;15.40;99.90;;;;;;6160254;23;20021;-77
2022/07/24 00:51:59;;;;;;;10.40;7.50;;;15.40;99.90;;;;;;6185265;23;20367;-75
2022/07/24 00:54:24;;;;;;;10.63;6.80;;;15.30;99.90;;;;;;6160555;23;20498;-75
2022/07/24 00:56:52;;;;;;;9.75;7.25;;;15.30;99.90;;;;;;6135636;23;20018;-76
2022/07/24 00:59:19;;;;;;;8.82;7.53;;;15.20;99.90;;;;;;6160251;23;20371;-76
2022/07/24 01:01:45;;;;;;;9.63;7.43;;;15.20;99.90;;;;;;6184985;23;20448;-75
2022/07/24 01:04:12;;;;;;;9.57;7.07;;;15.20;99.90;;;;;;6160250;23;20013;-76
2022/07/24 01:06:43;;;;;;;9.95;7.70;;;15.20;99.90;;;;;;6158832;23;20371;-75
2022/07/24 01:09:11;;;;;;;11.02;7.57;;;15.20;99.90;;;;;;6160062;23;20074;-75
2022/07/24 01:11:41;;;;;;;11.48;7.00;;;15.20;99.90;;;;;;6159939;23;20009;-76
2022/07/24 01:14:08;;;;;;;13.77;7.45;;;15.20;99.90;;;;;;6160422;23;20052;-76
2022/07/24 01:16:35;;;;;;;8.60;7.65;;;15.20;99.90;;;;;;6159018;23;20108;-75
2022/07/24 01:19:00;;;;;;;11.18;8.00;;;15.20;99.90;;;;;;6184225;23;20024;-75
2022/07/24 01:21:26;;;;;;;11.07;8.02;;;15.20;99.90;;;;;;6159171;23;20058;-75
2022/07/24 01:23:52;;;;;;;9.85;7.72;;;15.10;99.90;;;;;;6184282;23;20052;-75
2022/07/24 01:26:18;;;;;;;12.93;7.68;;;15.10;99.90;;;;;;6160087;23;20005;-75
2022/07/24 01:28:43;;;;;;;9.25;7.13;;;15.10;99.90;;;;;;6184480;23;20059;-76
2022/07/24 01:31:09;;;;;;;12.45;8.10;;;15.10;99.90;;;;;;6184858;23;20009;-75
2022/07/24 01:33:35;;;;;;;12.90;7.75;;;15.10;99.90;;;;;;6184883;23;20013;-76
2022/07/24 01:36:01;;;;;;;11.48;8.48;;;15.10;99.90;;;;;;6159654;23;20017;-74
2022/07/24 01:38:27;;;;;;;10.55;8.15;;;15.20;99.90;;;;;;6184601;23;20490;-75
2022/07/24 01:40:53;;;;;;;11.20;7.60;;;15.10;99.90;;;;;;6159071;23;20019;-76
2022/07/24 01:43:18;;;;;;;12.05;8.27;;;15.10;99.90;;;;;;6159714;23;20052;-77
2022/07/24 01:45:44;;;;;;;10.70;8.07;;;15.20;99.90;;;;;;6189004;23;20048;-76
2022/07/24 01:48:11;;;;;;;9.80;8.18;;;15.20;99.90;;;;;;6140072;23;20423;-74
2022/07/24 01:50:36;;;;;;;;;;;15.20;99.90;;;;;;6189549;23;20318;-77
2022/07/24 01:53:02;;;;;;;16.42;9.95;;;15.20;99.90;;;;;;6215874;23;19986;-77
2022/07/24 01:55:28;;;;;;;10.82;8.10;;;15.20;99.90;;;;;;6164401;23;20020;-75
2022/07/24 01:57:54;;;;;;;;;;;15.20;99.90;;;;;;6166323;23;20308;-75
2022/07/24 02:00:20;;;;;;;13.73;7.93;;;15.20;99.90;;;;;;6165490;23;19996;-76
2022/07/24 02:02:46;;;;;;;10.50;8.32;;;15.20;99.90;;;;;;6164632;23;20441;-76
2022/07/24 02:05:13;;;;;;;13.10;8.45;;;15.20;99.90;;;;;;6189202;23;20044;-75
2022/07/24 02:07:40;;;;;;;13.57;8.40;;;15.30;99.90;;;;;;6164124;23;20019;-77
2022/07/24 02:10:06;;;;;;;10.35;7.93;;;15.40;99.90;;;;;;6188895;23;20427;-76
2022/07/24 02:12:31;;;;;;;11.15;8.45;;;15.20;99.90;;;;;;6188195;23;20044;-76
2022/07/24 02:14:57;;;;;;;12.52;9.27;;;15.30;99.90;;;;;;6164754;23;20015;-76
2022/07/24 02:17:23;;;;;;;11.27;8.55;;;15.30;99.90;;;;;;6188443;23;20031;-76
2022/07/24 02:19:48;;;;;;;17.00;9.30;;;15.30;99.90;;;;;;6164537;23;20039;-75
2022/07/24 02:22:14;;;;;;;11.80;8.98;;;15.20;99.90;;;;;;6164761;23;20087;-75
2022/07/24 02:24:40;;;;;;;11.40;8.40;;;15.10;99.90;;;;;;6164635;23;20018;-77
2022/07/24 02:27:05;;;;;;;11.35;9.43;;;15.10;99.90;;;;;;6164590;23;20040;-75
2022/07/24 02:29:31;;;;;;;16.40;9.18;;;15.10;99.90;;;;;;6164624;23;20012;-76
2022/07/24 02:31:57;;;;;;;19.15;8.95;;;15.10;99.90;;;;;;6166471;23;20494;-76
2022/07/24 02:34:22;;;;;;;14.05;9.57;;;15.20;99.90;;;;;;6166393;23;20084;-76
2022/07/24 02:36:48;;;;;;;12.00;9.88;;;15.10;99.90;;;;;;6166791;23;20107;-75
2022/07/24 02:39:16;;;;;;;11.00;9.05;;;15.20;99.90;;;;;;6191726;23;20023;-75
2022/07/24 02:41:42;;;;;;;11.63;9.30;;;15.20;99.90;;;;;;6190693;23;20085;-75
2022/07/24 02:44:08;;;;;;;12.43;9.95;;;15.20;99.90;;;;;;6190882;23;20099;-76
2022/07/24 02:46:33;;;;;;;13.02;9.68;;;15.20;99.90;;;;;;6165389;23;20431;-77
2022/07/24 02:48:59;;;;;;;13.02;9.80;;;15.20;99.90;;;;;;6141652;23;20048;-76
2022/07/24 02:51:25;;;;;;;13.40;9.73;;;15.20;99.90;;;;;;6191384;23;20034;-76
2022/07/24 02:53:50;;;;;;;13.68;10.15;;;15.20;99.90;;;;;;6166587;23;20051;-76
2022/07/24 02:56:16;;;;;;;16.00;10.18;;;15.20;99.90;;;;;;6141707;23;20021;-75
2022/07/24 02:58:42;;;;;;;13.70;9.95;;;15.30;99.90;;;;;;6166598;23;20071;-75
2022/07/24 03:01:07;;;;;;;13.00;10.27;;;15.30;99.90;;;;;;6166359;23;20104;-75
2022/07/24 03:03:33;;;;;;;16.02;10.63;;;15.20;99.90;;;;;;6191174;23;20020;-75
2022/07/24 03:05:59;;;;;;;12.65;10.05;;;15.20;99.90;;;;;;6191066;23;20012;-77
2022/07/24 03:08:24;;;;;;;12.93;10.20;;;15.30;99.90;;;;;;6217542;23;20008;-76
2022/07/24 03:10:50;;;;;;;15.15;10.32;;;15.30;99.90;;;;;;6191328;23;20324;-75
2022/07/24 03:13:16;;;;;;;17.08;10.68;;;15.40;99.90;;;;;;6165355;23;20012;-75
2022/07/24 03:15:41;;;;;;;16.83;11.45;;;15.30;99.90;;;;;;6190968;23;20375;-76
2022/07/24 03:18:07;;;;;;;15.95;11.07;;;15.10;99.90;;;;;;6166181;23;20442;-76
2022/07/24 03:20:33;;;;;;;26.17;12.75;;;15.10;99.90;;;;;;6166008;23;20052;-75
2022/07/24 03:22:59;;;;;;;18.77;11.77;;;15.20;99.90;;;;;;6191127;23;20062;-76
2022/07/24 03:25:25;;;;;;;22.40;14.00;;;15.20;99.90;;;;;;6166354;23;20021;-75
2022/07/24 03:27:52;;;;;;;18.00;12.68;;;15.20;99.90;;;;;;6190917;23;20020;-75
2022/07/24 03:30:17;;;;;;;16.60;12.63;;;15.20;99.90;;;;;;6191983;23;20039;-76
2022/07/24 03:32:43;;;;;;;22.75;12.70;;;15.20;99.90;;;;;;6192196;23;20020;-75
2022/07/24 03:35:09;;;;;;;15.80;12.23;;;15.10;99.90;;;;;;6190743;23;20039;-78
2022/07/24 03:37:35;;;;;;;15.13;10.57;;;15.10;99.90;;;;;;6217546;23;20016;-76
2022/07/24 03:40:02;;;;;;;15.90;11.88;;;15.30;99.90;;;;;;6190742;23;20428;-74
2022/07/24 03:42:27;;;;;;;16.58;11.75;;;15.20;99.90;;;;;;6189086;23;20008;-75
2022/07/24 03:44:53;;;;;;;16.35;11.23;;;15.10;99.90;;;;;;6165141;23;20089;-76
2022/07/24 03:47:22;;;;;;;14.38;10.45;;;15.20;99.90;;;;;;6190743;23;20012;-75
2022/07/24 03:49:48;;;;;;;19.05;11.10;;;15.20;99.90;;;;;;6190865;23;20016;-75
2022/07/24 03:52:13;;;;;;;17.48;11.38;;;15.20;99.90;;;;;;6165617;23;20027;-75
2022/07/24 03:54:39;;;;;;;12.93;10.43;;;15.30;99.90;;;;;;6165632;23;20013;-75
2022/07/24 03:57:06;;;;;;;18.50;11.40;;;15.30;99.90;;;;;;6190647;23;20016;-76
2022/07/24 03:59:32;;;;;;;25.35;11.18;;;15.40;99.90;;;;;;6165833;23;20024;-75
2022/07/24 04:01:58;;;;;;;58.90;12.73;;;15.30;99.90;;;;;;6190339;23;20009;-75
2022/07/24 04:04:23;;;;;;;18.65;11.23;;;15.40;99.90;;;;;;6190598;23;20075;-76
2022/07/24 04:06:52;;;;;;;18.77;11.40;;;15.40;99.90;;;;;;6141281;23;20074;-75
2022/07/24 04:09:17;;;;;;;15.27;11.38;;;15.40;99.90;;;;;;6190746;23;20013;-76
2022/07/24 04:11:44;;;;;;;17.17;11.50;;;15.40;99.90;;;;;;6190881;23;20081;-76
2022/07/24 04:14:10;;;;;;;16.20;11.13;;;15.40;99.90;;;;;;6189987;23;20016;-76
2022/07/24 04:16:36;;;;;;;18.83;11.40;;;15.40;99.90;;;;;;6189438;23;20462;-75
2022/07/24 04:19:02;;;;;;;13.73;10.13;;;15.40;99.90;;;;;;6190098;23;20013;-75
2022/07/24 04:21:27;;;;;;;15.68;10.05;;;15.50;99.90;;;;;;6190578;23;20034;-75
2022/07/24 04:23:53;;;;;;;13.48;10.75;;;15.40;99.90;;;;;;6165689;23;20013;-77
2022/07/24 04:26:19;;;;;;;12.57;10.65;;;15.40;99.90;;;;;;6165688;23;20420;-74
2022/07/24 04:28:44;;;;;;;16.35;11.35;;;15.40;99.90;;;;;;6165699;23;20024;-75
2022/07/24 04:31:10;;;;;;;14.05;10.68;;;15.40;99.90;;;;;;6190389;23;20083;-75
2022/07/24 04:33:36;;;;;;;14.60;10.13;;;15.50;99.90;;;;;;6165797;23;20355;-75
2022/07/24 04:36:04;;;;;;;19.27;10.82;;;15.60;99.90;;;;;;6165111;23;20111;-75
2022/07/24 04:38:30;;;;;;;13.77;11.20;;;15.60;99.90;;;;;;6165154;23;20020;-75
2022/07/24 04:40:55;;;;;;;13.60;10.48;;;15.50;99.90;;;;;;6165111;23;20017;-74
2022/07/24 04:43:21;;;;;;;12.82;10.23;;;15.60;99.90;;;;;;6189864;23;20459;-74
2022/07/24 04:45:47;;;;;;;15.00;10.15;;;15.70;99.90;;;;;;6189417;23;20012;-74
2022/07/24 04:48:13;;;;;;;13.68;10.48;;;15.80;99.90;;;;;;6164917;23;20498;-75
2022/07/24 04:50:38;;;;;;;14.07;10.23;;;15.80;99.90;;;;;;6165483;23;20016;-75
2022/07/24 04:53:04;;;;;;;13.85;11.02;;;15.90;99.90;;;;;;6189595;23;20070;-74
2022/07/24 04:55:30;;;;;;;23.52;10.10;;;16.00;99.90;;;;;;6190235;23;20012;-74
2022/07/24 04:57:55;;;;;;;14.15;10.32;;;16.10;99.90;;;;;;6165384;23;20437;-74
2022/07/24 05:00:21;;;;;;;15.45;11.30;;;16.20;99.90;;;;;;6166064;23;20051;-75
2022/07/24 05:02:47;;;;;;;15.45;11.38;;;16.20;99.90;;;;;;6165650;23;20019;-75
2022/07/24 05:05:13;;;;;;;16.67;10.18;;;16.20;99.90;;;;;;6166044;23;20020;-74
2022/07/24 05:07:38;;;;;;;16.92;11.27;;;16.30;99.90;;;;;;6190441;23;20016;-76
2022/07/24 05:10:05;;;;;;;15.27;10.73;;;16.30;99.90;;;;;;6165450;23;20013;-76
2022/07/24 05:12:31;;;;;;;14.93;11.13;;;16.30;99.90;;;;;;6164979;23;20052;-74
2022/07/24 05:15:04;;;;;;;17.98;11.38;;;16.50;99.90;;;;;;6190586;23;20020;-72
2022/07/24 05:17:54;;;;;;;17.20;11.55;;;16.50;99.90;;;;;;6165190;23;20016;-75
2022/07/24 05:20:36;;;;;;;16.67;10.65;;;16.50;99.90;;;;;;6189769;23;20207;-75
2022/07/24 05:23:07;;;;;;;13.00;10.10;;;16.70;99.90;;;;;;6142885;23;20027;-74
2022/07/24 05:25:33;;;;;;;15.13;10.82;;;16.80;99.90;;;;;;6189001;23;20096;-75
2022/07/24 05:27:59;;;;;;;15.75;10.68;;;16.90;99.90;;;;;;6189674;23;20040;-74
2022/07/24 05:30:25;;;;;;;14.23;10.75;;;17.10;99.90;;;;;;6164435;23;20027;-73
2022/07/24 05:32:56;;;;;;;18.27;11.98;;;17.20;99.90;;;;;;6164359;23;20012;-75
2022/07/24 05:35:25;;;;;;;14.15;10.13;;;17.30;99.90;;;;;;6164680;23;20021;-74
2022/07/24 05:37:55;;;;;;;15.38;10.40;;;17.60;99.90;;;;;;6164756;23;20013;-74
2022/07/24 05:40:31;;;;;;;15.65;10.30;;;17.80;99.90;;;;;;6164295;23;20016;-74
2022/07/24 05:43:00;;;;;;;13.48;10.70;;;17.90;99.90;;;;;;6163813;23;20017;-74
2022/07/24 05:45:31;;;;;;;13.35;10.68;;;18.00;99.90;;;;;;6164337;23;20012;-74
2022/07/24 05:48:05;;;;;;;15.45;11.52;;;18.10;99.90;;;;;;6189080;23;20021;-74
2022/07/24 05:50:40;;;;;;;15.88;10.85;;;17.90;99.90;;;;;;6164686;23;20027;-73
2022/07/24 05:53:13;;;;;;;16.35;10.75;;;17.90;99.90;;;;;;6188979;23;20008;-74
2022/07/24 05:55:42;;;;;;;17.92;11.05;;;18.00;99.90;;;;;;6215123;23;20359;-74
2022/07/24 05:58:16;;;;;;;15.98;11.00;;;18.20;99.90;;;;;;6139217;23;20005;-75
2022/07/24 06:00:43;;;;;;;18.08;11.23;;;18.50;99.90;;;;;;6188437;23;20031;-79
2022/07/24 06:03:54;;;;;;;;;;;18.80;99.90;;;;;;6163554;23;20013;-76
2022/07/24 06:06:20;;;;;;;16.88;11.35;;;19.00;99.90;;;;;;6038796;23;19930;-73
2022/07/24 06:08:46;;;;;;;17.73;11.50;;;19.40;99.90;;;;;;6167391;23;20008;-73
2022/07/24 06:15:27;;;;;;;20.35;12.95;;;20.10;99.90;;;;;;6160662;23;20114;-85
2022/07/24 06:18:03;;;;;;;15.63;12.50;;;20.30;99.90;;;;;;6154734;23;20111;-77
2022/07/24 06:20:29;;;;;;;15.68;12.05;;;20.80;99.90;;;;;;6187086;23;20420;-75
2022/07/24 06:22:54;;;;;;;17.73;11.88;;;21.00;99.90;;;;;;6187380;23;20024;-73
2022/07/24 06:25:20;;;;;;;15.80;12.50;;;21.30;99.90;;;;;;6163013;23;20379;-74
2022/07/24 06:34:50;;;;;;;19.00;10.00;;;22.00;99.90;;;;;;6184880;23;20400;-78
2022/07/24 06:37:15;;;;;;;15.05;9.93;;;22.10;99.90;;;;;;6158713;23;20013;-75
2022/07/24 06:39:56;;;;;;;;;;;;;;;;;;;;;
2022/07/24 06:49:39;;;;;;;7.72;4.45;;;21.90;99.90;;;;;;6182549;23;20017;-80
2022/07/24 06:55:46;;;;;;;8.65;4.53;;;21.90;99.90;;;;;;6183955;23;20051;-73
2022/07/24 06:58:21;;;;;;;12.75;4.38;;;21.70;99.90;;;;;;6181126;23;20013;-79
2022/07/24 07:00:53;;;;;;;14.52;4.72;;;21.70;99.90;;;;;;6182410;23;20439;-76
2022/07/24 07:03:19;;;;;;;13.98;4.72;;;21.60;99.90;;;;;;6157601;23;20009;-73
2022/07/24 07:05:53;;;;;;;8.60;4.07;;;21.60;99.90;;;;;;6182814;23;20005;-77
2022/07/24 07:12:00;;;;;;;10.57;3.72;;;21.50;99.90;;;;;;6184100;23;20004;-80
2022/07/24 07:14:36;;;;;;;7.35;4.07;;;21.50;99.90;;;;;;6187012;23;20420;-77
2022/07/24 07:17:25;;;;;;;7.68;4.03;;;21.50;99.90;;;;;;6103100;23;20009;-75
2022/07/24 07:20:28;;;;;;;8.80;3.75;;;21.50;99.90;;;;;;6184722;23;20075;-78
2022/07/24 07:26:29;;;;;;;8.82;3.83;;;21.50;99.90;;;;;;6186084;23;20436;-71
2022/07/24 07:28:55;;;;;;;10.88;3.78;;;21.40;99.90;;;;;;6184754;23;20076;-71
2022/07/24 07:42:54;;;;;;;9.55;4.10;;;21.10;99.90;;;;;;6144339;23;20040;-75
2022/07/24 07:45:20;;;;;;;9.57;4.38;;;21.10;99.90;;;;;;6110678;23;20485;-71
2022/07/24 07:47:56;;;;;;;7.93;3.90;;;21.10;99.90;;;;;;6159031;23;20021;-73
2022/07/24 07:50:31;;;;;;;9.88;4.13;;;21.10;99.90;;;;;;6135125;23;20025;-73
2022/07/24 07:52:57;;;;;;;10.30;4.05;;;21.00;99.90;;;;;;6134455;23;20847;-72
2022/07/24 07:55:22;;;;;;;10.93;4.10;;;21.00;99.90;;;;;;6134832;23;20009;-72
2022/07/24 07:57:49;;;;;;;12.80;4.40;;;21.00;99.90;;;;;;6133819;23;20020;-72
2022/07/24 08:00:17;;;;;;;7.22;4.18;;;21.10;99.90;;;;;;6134772;23;20305;-71
2022/07/24 08:02:53;;;;;;;7.32;4.18;;;21.60;99.90;;;;;;6134860;23;20395;-78
2022/07/24 08:05:28;;;;;;;9.57;3.80;;;22.00;99.90;;;;;;6128322;23;20092;-71
2022/07/24 08:19:04;;;;;;;8.20;3.08;;;23.10;99.90;;;;;;6122978;23;20008;-73
2022/07/24 08:21:31;;;;;;;10.25;3.42;;;23.20;99.90;;;;;;6126105;23;20020;-68
2022/07/24 08:28:06;;;;;;;15.35;2.97;;;23.70;99.90;;;;;;6094705;23;20097;-73
2022/07/24 08:30:34;;;;;;;9.63;2.90;;;23.80;99.90;;;;;;6079837;23;20024;-74
2022/07/24 08:33:00;;;;;;;8.27;3.03;;;23.90;99.90;;;;;;6129568;23;20013;-73
2022/07/24 08:35:29;;;;;;;;;;;24.20;99.90;;;;;;6129734;23;20060;-75
2022/07/24 08:37:54;;;;;;;5.43;2.95;;;24.40;99.90;;;;;;6158466;23;20309;-73
2022/07/24 08:40:22;;;;;;;;;;;24.50;99.90;;;;;;6134683;23;20048;-75
2022/07/24 08:42:51;;;;;;;9.40;3.38;;;24.70;99.90;;;;;;6133588;23;20059;-75
2022/07/24 08:45:16;;;;;;;6.70;2.88;;;24.80;99.90;;;;;;6134403;23;20424;-75
2022/07/24 08:47:42;;;;;;;;;;;24.90;99.90;;;;;;6134659;23;20088;-74
2022/07/24 08:50:09;;;;;;;9.82;2.67;;;24.90;99.60;;;;;;6160990;23;19939;-76
2022/07/24 08:52:39;;;;;;;5.80;2.50;;;24.90;99.60;;;;;;6109551;23;20328;-73
2022/07/24 08:58:53;;;;;;;7.25;2.83;;;24.90;98.90;;;;;;6161037;23;20067;-74
2022/07/24 09:01:19;;;;;;;;;;;25.00;99.60;;;;;;6134749;23;20016;-74
2022/07/24 09:03:53;;;;;;;9.82;2.65;;;25.20;99.20;;;;;;6133552;23;20365;-78
2022/07/24 09:06:19;;;;;;;6.78;2.50;;;25.40;99.00;;;;;;6134005;23;20509;-78
2022/07/24 09:08:58;;;;;;;;;;;25.50;98.70;;;;;;6158680;23;20016;-77
2022/07/24 09:11:23;;;;;;;5.70;2.50;;;25.50;97.50;;;;;;6158016;23;19962;-75
2022/07/24 09:16:35;;;;;;;4.43;2.17;;;25.90;97.40;;;;;;6158501;23;19912;-72
2022/07/24 09:22:43;;;;;;;7.80;2.33;;;26.10;96.80;;;;;;6184530;23;20007;-75
2022/07/24 09:25:12;;;;;;;5.13;2.22;;;26.20;96.40;;;;;;6134077;23;20017;-75
2022/07/24 09:27:58;;;;;;;6.63;2.40;;;26.30;96.40;;;;;;6133876;23;20017;-77
2022/07/24 09:30:48;;;;;;;5.43;2.60;;;26.40;95.30;;;;;;6158717;23;20055;-76
2022/07/24 10:21:12;;;;;;;6.55;1.85;;;25.50;94.00;;;;;;6007317;23;20016;-78
2022/07/24 10:24:30;;;;;;;5.85;2.40;;;25.50;94.50;;;;;;5969254;23;20018;-80
2022/07/24 10:27:03;;;;;;;4.25;1.80;;;25.50;94.20;;;;;;6047426;23;20042;-78
2022/07/24 10:33:27;;;;;;;9.18;2.13;;;25.30;93.90;;;;;;6095116;23;20010;-77
2022/07/24 10:35:56;;;;;;;3.67;1.98;;;25.60;94.40;;;;;;6047336;23;20225;-76
2022/07/24 10:38:32;;;;;;;5.45;1.60;;;25.90;94.40;;;;;;6070849;23;20484;-77
2022/07/24 10:41:05;;;;;;;3.75;1.80;;;26.30;94.90;;;;;;6046371;23;20006;-77
2022/07/24 10:43:31;;;;;;;6.82;1.90;;;26.70;94.10;;;;;;6071457;23;20093;-77
2022/07/24 10:45:56;;;;;;;4.57;1.65;;;26.80;93.80;;;;;;6070366;23;20378;-77
2022/07/24 10:48:23;;;;;;;7.15;1.90;;;26.60;93.00;;;;;;6046541;23;20023;-77
2022/07/24 10:51:00;;;;;;;4.22;1.90;;;26.50;92.90;;;;;;6047221;23;20378;-78
2022/07/24 10:53:29;;;;;;;3.78;1.60;;;26.50;92.90;;;;;;6048921;23;20010;-77
2022/07/24 10:56:18;;;;;;;7.68;1.85;;;26.60;92.80;;;;;;6157239;23;20088;-77
2022/07/24 10:58:59;;;;;;;6.00;1.70;;;26.70;93.20;;;;;;6132737;23;20495;-76
2022/07/24 11:01:54;;;;;;;3.65;1.55;;;27.00;92.80;;;;;;6132985;23;20420;-77
2022/07/24 11:04:22;;;;;;;8.35;1.60;;;27.50;92.20;;;;;;6133510;23;20014;-78
2022/07/24 11:07:07;;;;;;;6.15;1.48;;;27.70;91.30;;;;;;6156951;23;20013;-76
2022/07/24 11:09:59;;;;;;;9.45;1.80;;;27.80;91.90;;;;;;6132285;23;20025;-76
2022/07/24 11:12:30;;;;;;;4.03;1.70;;;27.90;91.10;;;;;;6132455;23;20013;-77
2022/07/24 11:17:50;;;;;;;3.50;1.50;;;27.70;89.70;;;;;;6157028;23;20022;-75
2022/07/24 11:20:21;;;;;;;3.67;1.48;;;27.70;90.20;;;;;;6132189;23;20013;-75
2022/07/24 11:22:53;;;;;;;4.45;1.42;;;27.80;89.50;;;;;;6157291;23;20067;-77
2022/07/24 11:25:21;;;;;;;4.10;1.70;;;28.00;89.10;;;;;;6156657;23;20005;-77
2022/07/24 11:27:48;;;;;;;3.97;1.60;;;28.20;88.40;;;;;;6133540;23;20012;-76
2022/07/24 11:30:15;;;;;;;4.38;1.58;;;28.20;88.40;;;;;;6133805;23;20009;-78
2022/07/24 11:32:42;;;;;;;5.53;1.73;;;28.00;85.70;;;;;;6156674;23;20075;-77
2022/07/24 11:35:12;;;;;;;6.90;2.00;;;28.10;86.00;;;;;;6156757;23;20012;-78
2022/07/24 11:37:40;;;;;;;4.60;1.50;;;28.00;85.70;;;;;;6156547;23;20088;-76
2022/07/24 11:40:07;;;;;;;3.67;1.45;;;28.00;86.00;;;;;;6156905;23;20006;-77
2022/07/24 11:42:34;;;;;;;4.80;1.40;;;28.00;86.10;;;;;;6156430;23;20320;-78
2022/07/24 11:45:01;;;;;;;4.45;1.50;;;28.00;85.80;;;;;;6132001;23;20111;-77
2022/07/24 11:47:28;;;;;;;5.38;1.60;;;28.10;86.00;;;;;;6108505;23;20020;-77
2022/07/24 11:50:00;;;;;;;2.42;1.30;;;28.00;86.40;;;;;;6131978;23;20049;-78
2022/07/24 11:52:27;;;;;;;5.15;1.40;;;28.10;85.30;;;;;;6156307;23;20006;-77
2022/07/24 11:54:55;;;;;;;3.53;1.50;;;28.00;86.50;;;;;;6131481;23;20424;-76
2022/07/24 11:57:28;;;;;;;6.85;1.65;;;28.10;87.50;;;;;;6131694;23;20377;-77
2022/07/24 11:59:54;;;;;;;5.90;2.00;;;28.20;86.10;;;;;;6132005;23;20017;-74
2022/07/24 12:02:21;;;;;;;6.57;1.88;;;28.20;85.30;;;;;;6156029;23;20006;-76
2022/07/24 12:04:49;;;;;;;9.05;1.73;;;28.30;85.80;;;;;;6132036;23;20019;-76
2022/07/24 12:07:17;;;;;;;4.53;1.33;;;28.30;85.40;;;;;;6131756;23;20335;-77
2022/07/24 12:09:45;;;;;;;4.28;2.08;;;28.40;86.20;;;;;;6133287;23;20013;-75
2022/07/24 12:12:22;;;;;;;2.92;1.30;;;28.40;85.40;;;;;;6156456;23;20013;-75
2022/07/24 12:14:51;;;;;;;4.45;1.30;;;28.50;85.00;;;;;;6159102;23;20010;-76
2022/07/24 12:17:17;;;;;;;6.15;1.50;;;28.40;84.20;;;;;;6136244;23;20092;-75
2022/07/24 12:19:54;;;;;;;6.00;1.40;;;28.40;83.70;;;;;;6136952;23;20036;-77
2022/07/24 12:22:21;;;;;;;7.18;1.60;;;28.20;83.70;;;;;;6136505;23;20298;-76
2022/07/24 12:24:47;;;;;;;5.72;1.23;;;28.40;84.00;;;;;;6137032;23;20044;-77
2022/07/24 12:27:38;;;;;;;6.47;1.50;;;28.40;83.40;;;;;;6161545;23;20012;-77
2022/07/24 12:30:25;;;;;;;4.53;1.23;;;28.60;83.20;;;;;;6161022;23;20013;-76
2022/07/24 12:33:02;;;;;;;3.92;1.20;;;28.50;82.40;;;;;;6136218;23;20009;-77
2022/07/24 12:35:34;;;;;;;3.08;1.33;;;28.60;82.70;;;;;;6136316;23;20082;-75
2022/07/24 12:38:03;;;;;;;2.28;1.08;;;28.50;82.90;;;;;;6187666;23;20020;-77
2022/07/24 12:40:35;;;;;;;3.55;1.10;;;28.50;82.30;;;;;;6161245;23;20436;-76
2022/07/24 12:43:10;;;;;;;2.78;1.25;;;28.60;81.80;;;;;;6161155;23;20013;-77
2022/07/24 12:45:37;;;;;;;3.83;1.30;;;28.50;82.30;;;;;;6136562;23;20088;-76
2022/07/24 12:48:20;;;;;;;5.60;1.10;;;28.50;81.70;;;;;;6136101;23;20044;-77
2022/07/24 12:51:00;;;;;;;9.82;1.30;;;28.50;81.00;;;;;;6162792;23;20039;-77
2022/07/24 12:53:30;;;;;;;3.72;1.10;;;28.40;82.10;;;;;;6161528;23;20005;-76
2022/07/24 12:56:12;;;;;;;5.30;1.23;;;28.50;82.50;;;;;;6136834;23;20443;-77
2022/07/24 12:59:02;;;;;;;3.65;1.30;;;28.50;82.50;;;;;;6160757;23;20054;-78
2022/07/24 13:01:43;;;;;;;3.22;0.98;;;28.50;82.50;;;;;;6136002;23;20013;-76
2022/07/24 13:04:10;;;;;;;3.33;1.30;;;28.60;81.00;;;;;;6160678;23;20324;-77
2022/07/24 13:06:46;;;;;;;10.80;1.42;;;28.60;81.90;;;;;;6160655;23;20009;-77
2022/07/24 13:09:12;;;;;;;3.83;1.10;;;28.70;82.20;;;;;;6160399;23;20009;-75
2022/07/24 13:11:41;;;;;;;5.18;1.30;;;28.90;82.40;;;;;;6136203;23;20323;-77
2022/07/24 13:14:08;;;;;;;4.10;1.20;;;29.00;81.80;;;;;;6159765;23;20043;-76
2022/07/24 13:16:37;;;;;;;4.95;1.40;;;29.00;82.40;;;;;;6130837;23;20029;-76
2022/07/24 13:19:04;;;;;;;4.72;1.40;;;29.10;81.90;;;;;;6130943;23;20024;-75
2022/07/24 13:21:30;;;;;;;5.97;1.45;;;29.10;80.30;;;;;;6131195;23;20013;-78
2022/07/24 13:23:56;;;;;;;4.15;1.20;;;29.20;81.10;;;;;;6131187;23;20014;-78
2022/07/24 13:26:22;;;;;;;2.92;1.23;;;29.10;80.50;;;;;;6155496;23;20020;-77
2022/07/24 13:28:48;;;;;;;4.57;1.20;;;29.20;79.40;;;;;;6155717;23;20014;-78
2022/07/24 13:31:14;;;;;;;5.50;1.27;;;29.20;79.40;;;;;;6106937;23;20025;-77
2022/07/24 13:33:40;;;;;;;3.13;1.27;;;29.10;79.60;;;;;;6130667;23;20014;-75
2022/07/24 13:36:06;;;;;;;6.72;1.40;;;29.20;78.10;;;;;;6157180;23;20013;-74
2022/07/24 13:38:32;;;;;;;6.22;1.50;;;29.10;78.50;;;;;;6130997;23;20005;-76
2022/07/24 13:41:01;;;;;;;2.08;1.00;;;29.20;80.00;;;;;;6130769;23;20081;-75
2022/07/24 13:43:27;;;;;;;2.13;0.90;;;29.20;78.90;;;;;;6155156;23;20085;-74
2022/07/24 13:45:52;;;;;;;3.83;0.95;;;29.20;78.20;;;;;;6155835;23;20048;-77
2022/07/24 13:48:18;;;;;;;2.25;1.00;;;29.20;77.30;;;;;;6155632;23;20027;-75
2022/07/24 13:50:44;;;;;;;2.05;1.10;;;29.40;78.00;;;;;;6155514;23;20017;-76
2022/07/24 13:53:10;;;;;;;4.63;1.00;;;29.50;77.10;;;;;;6155330;23;20013;-76
2022/07/24 13:55:36;;;;;;;5.28;1.33;;;29.60;78.50;;;;;;6130898;23;20356;-75
2022/07/24 13:58:02;;;;;;;12.30;1.33;;;29.60;76.90;;;;;;6155399;23;20013;-74
2022/07/24 14:00:27;;;;;;;7.80;1.45;;;29.80;75.60;;;;;;6155314;23;20015;-77
2022/07/24 14:02:56;;;;;;;4.50;1.20;;;29.90;75.70;;;;;;6106817;23;20076;-74
2022/07/24 14:05:25;;;;;;;5.60;1.42;;;29.80;74.80;;;;;;6155046;23;20025;-76
2022/07/24 14:07:52;;;;;;;6.30;1.35;;;29.90;75.20;;;;;;6130691;23;20432;-77
2022/07/24 14:10:19;;;;;;;3.78;1.50;;;29.90;75.30;;;;;;6130792;23;20064;-76
2022/07/24 14:12:48;;;;;;;4.13;1.40;;;30.00;73.90;;;;;;6130262;23;20017;-80
2022/07/24 14:15:15;;;;;;;4.00;1.40;;;30.00;73.30;;;;;;6154501;23;20340;-81
2022/07/24 14:17:42;;;;;;;6.35;1.40;;;30.10;74.40;;;;;;6156389;23;20017;-79
2022/07/24 14:20:49;;;;;;;3.97;1.30;;;30.10;74.20;;;;;;6133344;23;20021;-78
2022/07/24 14:23:18;;;;;;;8.38;1.60;;;30.10;72.20;;;;;;6116231;23;20097;-76
2022/07/24 14:25:44;;;;;;;4.18;1.60;;;30.00;72.50;;;;;;6157744;23;20055;-78
2022/07/24 14:28:13;;;;;;;6.57;1.50;;;30.10;72.80;;;;;;6154594;23;20041;-77
2022/07/24 14:30:39;;;;;;;7.32;1.60;;;30.10;71.50;;;;;;6130685;23;20519;-79
2022/07/24 14:33:18;;;;;;;9.15;1.42;;;30.10;72.10;;;;;;6127623;23;20345;-76
2022/07/24 14:36:27;;;;;;;;;;;;;;;;;;;;;
2022/07/24 14:46:39;;;;;;;;;;;;;;;;;;;;;
2022/07/24 14:49:54;;;;;;;2.45;1.17;;;30.50;69.90;;;;;;6070308;23;20438;-76
2022/07/24 14:56:34;;;;;;;7.32;1.42;;;30.70;70.70;;;;;;6069762;23;20010;-76
2022/07/24 15:11:03;;;;;;;;;;;;;;;;;;;;;
2022/07/24 15:13:47;;;;;;;;;;;;;;;;;;;;;
2022/07/24 15:16:19;;;;;;;2.28;1.25;;;31.50;69.60;;;;;;6061729;23;20334;-75
2022/07/24 15:26:31;;;;;;;2.33;1.30;;;31.70;66.40;;;;;;6067712;23;20044;-77
2022/07/24 15:32:45;;;;;;;3.33;1.50;;;32.20;67.20;;;;;;6155697;23;20035;-77
2022/07/24 15:35:14;;;;;;;4.43;1.60;;;32.60;67.20;;;;;;6129666;23;20092;-78